Time;durP1;ratioP1;P1;durP2;ratioP2;P2;SDS_P1;SDS_P2;PMS_P1;PMS_P2;Temp;Humidity;BMP_temperature;BMP_pressure;BME280_temperature;BME280_humidity;BME280_pressure;Samples;Min_cycle;Max_cycle;Signal;HPM_P1;HPM_P2
2021/12/27 00:00:37;;;;;;;18.08;10.63;;;-0.40;99.90;;;;;;2114975;67;20202;-71
2021/12/27 00:03:19;;;;;;;16.83;9.90;;;-0.40;99.90;;;;;;2111114;67;20209;-70
2021/12/27 00:06:01;;;;;;;14.73;9.80;;;-0.10;99.90;;;;;;2111444;67;20291;-71
2021/12/27 00:08:43;;;;;;;15.60;10.10;;;-0.30;99.90;;;;;;2099360;68;20280;-71
2021/12/27 00:11:25;;;;;;;15.70;9.85;;;-0.40;99.90;;;;;;2104394;68;20174;-71
2021/12/27 00:14:07;;;;;;;17.27;9.63;;;-0.40;99.90;;;;;;2105664;67;20212;-71
2021/12/27 00:16:49;;;;;;;16.10;9.75;;;-0.30;99.90;;;;;;2132753;67;20318;-70
2021/12/27 00:19:32;;;;;;;15.65;9.13;;;-0.30;99.90;;;;;;2123971;67;20389;-71
2021/12/27 00:22:17;;;;;;;14.27;9.55;;;-0.30;99.90;;;;;;2116005;67;20169;-71
2021/12/27 00:24:58;;;;;;;15.15;9.60;;;-0.30;99.90;;;;;;2105266;67;20217;-71
2021/12/27 00:27:39;;;;;;;14.25;10.25;;;-0.40;99.90;;;;;;2131006;67;20263;-72
2021/12/27 00:30:24;;;;;;;15.07;9.30;;;-0.40;99.90;;;;;;2132341;67;20237;-70
2021/12/27 00:33:10;;;;;;;14.20;9.25;;;-0.40;99.90;;;;;;2133222;67;20255;-71
2021/12/27 00:35:55;;;;;;;16.77;9.38;;;-0.40;99.90;;;;;;2126149;67;20326;-70
2021/12/27 00:38:39;;;;;;;14.57;9.23;;;-0.40;99.90;;;;;;2124695;67;21082;-71
2021/12/27 00:41:23;;;;;;;17.30;10.55;;;-0.40;99.90;;;;;;2110623;67;20382;-72
2021/12/27 00:44:07;;;;;;;17.45;10.30;;;-0.40;99.90;;;;;;2110948;67;20270;-71
2021/12/27 00:46:51;;;;;;;;;;;-0.40;99.90;;;;;;2109903;67;20199;-72
2021/12/27 00:49:32;;;;;;;14.93;9.23;;;-0.40;99.90;;;;;;2124622;67;20124;-70
2021/12/27 00:52:14;;;;;;;14.70;9.48;;;-0.50;99.90;;;;;;2103790;67;20204;-72
2021/12/27 00:54:56;;;;;;;15.48;9.60;;;-0.50;99.90;;;;;;2105414;67;20258;-72
2021/12/27 00:57:38;;;;;;;15.57;10.00;;;-0.50;99.90;;;;;;2102845;68;20207;-72
2021/12/27 01:00:23;;;;;;;16.27;9.45;;;-0.50;99.90;;;;;;2089935;68;20301;-71
2021/12/27 01:03:04;;;;;;;16.65;9.93;;;-0.50;99.90;;;;;;2102014;67;21120;-71
2021/12/27 01:05:46;;;;;;;14.60;9.45;;;-0.70;99.90;;;;;;2122566;67;20410;-71
2021/12/27 01:08:29;;;;;;;19.65;10.98;;;-0.60;99.90;;;;;;2130075;67;20657;-71
2021/12/27 01:14:26;;;;;;;14.73;9.98;;;-0.70;99.90;;;;;;2132488;67;20700;-71
2021/12/27 01:17:12;;;;;;;15.57;10.05;;;-0.70;99.90;;;;;;2129070;67;21029;-70
2021/12/27 01:19:55;;;;;;;13.70;8.90;;;-0.70;99.90;;;;;;2118782;67;20697;-71
2021/12/27 01:22:39;;;;;;;;;;;-0.80;99.90;;;;;;2104344;67;20280;-71
2021/12/27 01:25:21;;;;;;;15.65;9.18;;;-0.80;99.90;;;;;;2100674;68;20208;-71
2021/12/27 01:28:06;;;;;;;14.35;9.43;;;-0.80;99.90;;;;;;2104950;67;20181;-70
2021/12/27 01:30:51;;;;;;;14.82;9.82;;;-0.80;99.90;;;;;;2126271;67;20230;-72
2021/12/27 01:33:35;;;;;;;15.75;9.60;;;-0.80;99.90;;;;;;2129333;67;20172;-71
2021/12/27 01:36:18;;;;;;;15.98;10.68;;;-0.80;99.90;;;;;;2127642;67;20349;-72
2021/12/27 01:39:06;;;;;;;17.15;10.30;;;-0.80;99.90;;;;;;2135712;67;20179;-70
2021/12/27 01:41:54;;;;;;;16.05;9.48;;;-0.80;99.90;;;;;;2131704;67;20361;-70
2021/12/27 01:44:39;;;;;;;15.73;10.32;;;-0.80;99.90;;;;;;2133687;67;20272;-70
2021/12/27 01:47:21;;;;;;;18.55;10.25;;;-0.80;99.90;;;;;;2138404;67;20171;-71
2021/12/27 01:50:05;;;;;;;15.85;10.40;;;-0.80;99.90;;;;;;2125514;67;20298;-70
2021/12/27 01:52:47;;;;;;;17.25;10.45;;;-0.80;99.90;;;;;;2146406;66;20266;-71
2021/12/27 01:55:29;;;;;;;14.35;10.38;;;-0.80;99.90;;;;;;2135728;66;20183;-70
2021/12/27 01:58:13;;;;;;;16.10;9.38;;;-0.80;99.90;;;;;;2147080;66;20884;-71
2021/12/27 02:01:02;;;;;;;15.25;10.25;;;-0.80;99.90;;;;;;2145841;66;20240;-71
2021/12/27 02:03:49;;;;;;;16.48;10.95;;;-0.80;99.90;;;;;;2143958;66;20260;-71
2021/12/27 02:06:32;;;;;;;14.05;10.38;;;-0.80;99.90;;;;;;2160043;66;20235;-70
2021/12/27 02:09:20;;;;;;;18.67;10.70;;;-0.80;99.90;;;;;;2168039;65;20611;-71
2021/12/27 02:12:02;;;;;;;17.45;10.90;;;-0.80;99.90;;;;;;2160817;66;20349;-71
2021/12/27 02:14:45;;;;;;;17.77;10.73;;;-0.80;99.90;;;;;;2146797;66;20279;-69
2021/12/27 02:17:33;;;;;;;15.02;10.60;;;-0.70;99.90;;;;;;2139606;67;20866;-70
2021/12/27 02:20:24;;;;;;;15.77;10.90;;;-0.70;99.90;;;;;;2123687;67;20505;-71
2021/12/27 02:23:15;;;;;;;13.90;9.80;;;-0.70;99.90;;;;;;2136038;67;20179;-70
2021/12/27 02:25:56;;;;;;;17.02;11.20;;;0.30;99.90;;;;;;2131898;67;20339;-71
2021/12/27 02:28:39;;;;;;;16.58;11.07;;;-0.70;99.90;;;;;;2124742;67;20282;-71
2021/12/27 02:31:27;;;;;;;17.65;11.20;;;-0.70;99.90;;;;;;2112605;67;20676;-70
2021/12/27 02:34:10;;;;;;;17.23;11.80;;;-0.70;99.90;;;;;;2112221;67;20476;-70
2021/12/27 02:36:52;;;;;;;19.15;11.38;;;-0.70;99.90;;;;;;2117120;67;21355;-70
2021/12/27 02:39:34;;;;;;;15.80;11.20;;;-0.70;99.90;;;;;;2103619;67;20261;-70
2021/12/27 02:42:19;;;;;;;16.92;11.40;;;-0.70;99.90;;;;;;2098829;68;20388;-71
2021/12/27 02:45:01;;;;;;;20.05;12.63;;;-0.70;99.90;;;;;;2097256;68;20357;-71
2021/12/27 02:47:42;;;;;;;15.75;10.93;;;-0.70;99.90;;;;;;2112510;67;20398;-71
2021/12/27 02:50:27;;;;;;;17.23;10.55;;;-0.70;99.90;;;;;;2102804;67;20286;-71
2021/12/27 02:53:12;;;;;;;16.98;11.48;;;-0.70;99.90;;;;;;2098544;67;20791;-71
2021/12/27 02:55:55;;;;;;;16.67;11.27;;;-0.70;99.90;;;;;;2103796;67;20344;-71
2021/12/27 02:58:37;;;;;;;19.65;12.05;;;-0.60;99.90;;;;;;2118297;67;20362;-70
2021/12/27 03:01:22;;;;;;;18.80;11.45;;;-0.60;99.90;;;;;;2136490;66;20707;-70
2021/12/27 03:04:04;;;;;;;16.92;11.75;;;-0.50;99.90;;;;;;2124404;67;20310;-71
2021/12/27 03:06:46;;;;;;;16.33;11.27;;;-0.60;99.90;;;;;;2123880;67;20917;-71
2021/12/27 03:09:29;;;;;;;16.60;11.18;;;-0.60;99.90;;;;;;2119058;67;20269;-69
2021/12/27 03:12:13;;;;;;;17.08;11.02;;;-0.50;99.90;;;;;;2121169;67;20172;-70
2021/12/27 03:14:54;;;;;;;21.42;12.23;;;-0.50;99.90;;;;;;2132529;67;20348;-71
2021/12/27 03:17:36;;;;;;;18.13;12.00;;;-0.50;99.90;;;;;;2139994;67;20299;-70
2021/12/27 03:20:24;;;;;;;20.23;12.18;;;-0.50;99.90;;;;;;2139932;66;20361;-70
2021/12/27 03:23:06;;;;;;;19.77;12.33;;;-0.50;99.90;;;;;;2138099;67;20332;-71
2021/12/27 03:25:48;;;;;;;19.88;12.68;;;-0.50;99.90;;;;;;2140923;66;20247;-71
2021/12/27 03:28:30;;;;;;;17.75;11.77;;;0.40;99.90;;;;;;2140681;66;20234;-70
2021/12/27 03:31:15;;;;;;;19.50;12.50;;;-0.40;99.90;;;;;;2144394;66;20785;-71
2021/12/27 03:34:01;;;;;;;16.52;11.48;;;-0.40;99.90;;;;;;2134499;67;20351;-69
2021/12/27 03:36:47;;;;;;;18.15;11.35;;;-0.40;99.90;;;;;;2132671;67;20257;-69
2021/12/27 03:39:29;;;;;;;15.98;10.63;;;-0.40;99.90;;;;;;2138586;66;20378;-69
2021/12/27 03:42:11;;;;;;;17.73;11.32;;;-0.30;99.90;;;;;;2140021;66;20175;-70
2021/12/27 03:44:53;;;;;;;17.38;12.23;;;-0.40;99.90;;;;;;2139691;67;20294;-70
2021/12/27 03:47:36;;;;;;;20.55;13.13;;;-0.40;99.90;;;;;;2129495;67;20255;-69
2021/12/27 03:50:20;;;;;;;;;;;-0.40;99.90;;;;;;2131942;67;20266;-71
2021/12/27 03:53:03;;;;;;;17.15;11.40;;;-0.40;99.90;;;;;;2129748;67;20091;-71
2021/12/27 03:55:44;;;;;;;18.67;12.30;;;-0.40;99.90;;;;;;2139121;66;20286;-70
2021/12/27 03:58:33;;;;;;;17.15;11.73;;;-0.40;99.90;;;;;;2132196;67;20268;-70
2021/12/27 04:01:17;;;;;;;21.60;13.40;;;-0.40;99.90;;;;;;2117928;67;20268;-71
2021/12/27 04:03:59;;;;;;;19.63;12.35;;;-0.40;99.90;;;;;;2125815;67;20447;-70
2021/12/27 04:06:42;;;;;;;20.17;12.35;;;-0.30;99.90;;;;;;2125275;67;20314;-70
2021/12/27 04:09:24;;;;;;;18.80;11.20;;;-0.30;99.90;;;;;;2131943;67;20687;-71
2021/12/27 04:12:05;;;;;;;18.77;12.98;;;-0.30;99.90;;;;;;2132528;67;20450;-70
2021/12/27 04:14:48;;;;;;;19.58;12.40;;;-0.30;99.90;;;;;;2125399;67;20717;-71
2021/12/27 04:17:29;;;;;;;18.17;12.50;;;-0.30;99.90;;;;;;2118068;67;20172;-69
2021/12/27 04:20:12;;;;;;;20.10;12.95;;;-0.30;99.90;;;;;;2118453;67;20735;-71
2021/12/27 04:22:53;;;;;;;19.15;11.82;;;-0.20;99.90;;;;;;2104787;68;20225;-69
2021/12/27 04:25:34;;;;;;;19.73;12.65;;;-0.20;99.90;;;;;;2138043;66;20586;-69
2021/12/27 04:28:17;;;;;;;17.30;11.55;;;-0.30;99.90;;;;;;2141582;66;20237;-70
2021/12/27 04:30:58;;;;;;;19.42;12.65;;;-0.30;99.90;;;;;;2144541;66;20666;-70
2021/12/27 04:33:41;;;;;;;18.05;12.27;;;-0.20;99.90;;;;;;2132714;67;20234;-70
2021/12/27 04:36:22;;;;;;;21.70;13.38;;;-0.20;99.90;;;;;;2127573;67;20422;-70
2021/12/27 04:39:04;;;;;;;18.95;12.43;;;-0.20;99.90;;;;;;2139011;67;20552;-71
2021/12/27 04:41:48;;;;;;;19.45;12.43;;;-0.20;99.90;;;;;;2146904;66;20214;-71
2021/12/27 04:44:33;;;;;;;18.30;12.32;;;-0.20;99.90;;;;;;2139163;67;20339;-69
2021/12/27 04:47:19;;;;;;;22.77;13.60;;;-0.20;99.90;;;;;;2125420;67;20402;-71
2021/12/27 04:50:05;;;;;;;;;;;-0.20;99.90;;;;;;2124412;67;20250;-70
2021/12/27 04:52:53;;;;;;;18.45;12.02;;;-0.20;99.90;;;;;;2125303;67;20124;-71
2021/12/27 04:55:34;;;;;;;19.45;12.82;;;-0.10;99.90;;;;;;2119158;67;20339;-70
2021/12/27 04:58:17;;;;;;;21.48;13.13;;;-0.10;99.90;;;;;;2120603;67;20172;-70
2021/12/27 05:00:59;;;;;;;20.42;13.15;;;-0.10;99.90;;;;;;2111178;67;20249;-71
2021/12/27 05:03:43;;;;;;;20.90;12.40;;;-0.10;99.90;;;;;;2101353;68;20726;-71
2021/12/27 05:06:27;;;;;;;23.67;14.70;;;-0.10;99.90;;;;;;2105196;67;20812;-71
2021/12/27 05:09:09;;;;;;;21.95;12.95;;;-0.10;99.90;;;;;;2107893;67;20263;-70
2021/12/27 05:11:51;;;;;;;23.77;13.57;;;-0.10;99.90;;;;;;2128294;67;20775;-69
2021/12/27 05:14:34;;;;;;;22.73;13.30;;;0.00;99.90;;;;;;2125774;67;20237;-70
2021/12/27 05:17:20;;;;;;;20.23;13.27;;;0.00;99.90;;;;;;2125389;67;20172;-70
2021/12/27 05:20:04;;;;;;;20.95;13.52;;;0.00;99.90;;;;;;2147650;66;20371;-70
2021/12/27 05:22:46;;;;;;;23.83;14.93;;;0.00;99.90;;;;;;2139422;67;20262;-70
2021/12/27 05:25:28;;;;;;;21.95;13.15;;;0.10;99.90;;;;;;2132117;67;20580;-72
2021/12/27 05:28:10;;;;;;;20.65;12.60;;;0.10;99.90;;;;;;2125238;67;20279;-70
2021/12/27 05:30:52;;;;;;;18.25;12.93;;;0.10;99.90;;;;;;2118139;67;20214;-71
2021/12/27 05:33:37;;;;;;;18.20;12.40;;;0.10;99.90;;;;;;2124468;67;20236;-70
2021/12/27 05:36:19;;;;;;;21.65;13.32;;;0.10;99.90;;;;;;2126830;67;20305;-71
2021/12/27 05:39:01;;;;;;;20.30;14.30;;;0.20;99.90;;;;;;2122159;67;20348;-69
2021/12/27 05:41:43;;;;;;;21.63;12.88;;;0.20;99.90;;;;;;2123520;67;20200;-70
2021/12/27 05:44:25;;;;;;;20.60;13.40;;;0.20;99.90;;;;;;2132111;67;20691;-70
2021/12/27 05:47:07;;;;;;;22.80;14.70;;;0.30;99.90;;;;;;2113196;67;20181;-70
2021/12/27 05:49:48;;;;;;;22.42;15.30;;;0.30;99.90;;;;;;2124350;67;20261;-71
2021/12/27 05:52:31;;;;;;;24.25;15.40;;;0.20;99.90;;;;;;2117270;67;20257;-71
2021/12/27 05:55:17;;;;;;;25.38;16.02;;;0.20;99.90;;;;;;2108978;67;20837;-70
2021/12/27 05:58:02;;;;;;;22.95;15.35;;;0.20;99.90;;;;;;2113230;67;20318;-71
2021/12/27 06:00:47;;;;;;;27.50;17.08;;;0.20;99.90;;;;;;2103620;67;20301;-70
2021/12/27 06:03:32;;;;;;;25.70;17.23;;;0.10;99.90;;;;;;2121317;67;20713;-69
2021/12/27 06:06:21;;;;;;;27.67;16.25;;;0.10;99.90;;;;;;2122796;67;20306;-69
2021/12/27 06:09:06;;;;;;;26.02;17.08;;;0.20;99.90;;;;;;2104853;67;20270;-68
2021/12/27 06:11:48;;;;;;;27.13;16.60;;;0.00;99.90;;;;;;2100189;68;20330;-69
2021/12/27 06:14:30;;;;;;;27.33;16.98;;;0.00;99.90;;;;;;2100745;68;20925;-69
2021/12/27 06:17:13;;;;;;;28.98;17.70;;;0.00;99.90;;;;;;2104180;67;20276;-68
2021/12/27 06:19:58;;;;;;;23.38;16.15;;;0.00;99.90;;;;;;2101645;68;20266;-69
2021/12/27 06:22:47;;;;;;;29.50;17.27;;;0.00;99.90;;;;;;2097811;68;20256;-69
2021/12/27 06:25:29;;;;;;;28.30;18.60;;;0.00;99.90;;;;;;2104622;67;20479;-70
2021/12/27 06:28:11;;;;;;;29.33;17.15;;;0.00;99.90;;;;;;2096608;68;20339;-70
2021/12/27 06:30:55;;;;;;;31.85;18.38;;;0.00;99.90;;;;;;2102399;68;20378;-70
2021/12/27 06:33:39;;;;;;;26.08;17.15;;;0.00;99.90;;;;;;1890365;67;15149913;-69
2021/12/27 06:36:24;;;;;;;26.97;18.57;;;0.10;99.90;;;;;;2102086;68;20335;-71
2021/12/27 06:39:08;;;;;;;28.90;18.17;;;0.10;99.90;;;;;;2104252;68;20280;-69
2021/12/27 06:41:49;;;;;;;29.85;18.40;;;0.00;99.90;;;;;;2106161;67;20307;-70
2021/12/27 06:44:32;;;;;;;31.33;18.83;;;0.10;99.90;;;;;;2111783;67;20334;-71
2021/12/27 06:47:13;;;;;;;28.25;16.92;;;0.10;99.90;;;;;;2119478;67;20259;-69
2021/12/27 06:49:55;;;;;;;29.73;18.08;;;0.10;99.90;;;;;;2125915;67;20321;-70
2021/12/27 06:52:37;;;;;;;27.25;18.23;;;0.10;99.90;;;;;;2133755;67;20363;-69
2021/12/27 06:55:19;;;;;;;29.52;19.67;;;0.00;99.90;;;;;;2140021;67;20362;-70
2021/12/27 06:58:05;;;;;;;29.25;18.00;;;0.10;99.90;;;;;;2146606;66;20713;-70
2021/12/27 07:00:49;;;;;;;;;;;0.10;99.90;;;;;;2122088;67;20164;-70
2021/12/27 07:03:31;;;;;;;30.50;18.52;;;0.10;99.90;;;;;;2126519;67;20475;-72
2021/12/27 07:06:14;;;;;;;31.63;18.98;;;0.10;99.90;;;;;;2142071;66;20303;-70
2021/12/27 07:08:56;;;;;;;30.23;17.90;;;0.10;99.90;;;;;;2139996;67;20401;-70
2021/12/27 07:11:41;;;;;;;34.42;18.27;;;0.10;99.90;;;;;;2145004;66;20259;-70
2021/12/27 07:14:25;;;;;;;28.80;18.40;;;0.10;99.90;;;;;;2138906;66;20332;-69
2021/12/27 07:17:07;;;;;;;35.70;20.00;;;0.10;99.90;;;;;;2133035;67;20347;-70
2021/12/27 07:19:50;;;;;;;37.47;21.38;;;0.10;99.90;;;;;;2132313;67;20197;-71
2021/12/27 07:22:36;;;;;;;;;;;0.10;99.90;;;;;;2133570;67;20316;-70
2021/12/27 07:25:20;;;;;;;33.00;19.03;;;0.20;99.90;;;;;;2132482;67;20337;-69
2021/12/27 07:28:02;;;;;;;36.22;19.40;;;0.20;99.90;;;;;;2131876;67;20674;-70
2021/12/27 07:30:44;;;;;;;34.88;19.98;;;0.20;99.90;;;;;;2111239;67;20252;-70
2021/12/27 07:33:25;;;;;;;36.40;20.77;;;0.20;99.90;;;;;;2132801;66;20227;-71
2021/12/27 07:36:10;;;;;;;32.88;20.17;;;0.20;99.90;;;;;;2131888;67;20192;-70
2021/12/27 07:38:52;;;;;;;36.05;19.83;;;0.20;99.90;;;;;;2128755;67;20808;-69
2021/12/27 07:41:34;;;;;;;33.58;20.85;;;0.20;99.90;;;;;;2125034;67;20260;-70
2021/12/27 07:44:15;;;;;;;36.28;20.52;;;0.20;99.90;;;;;;2131990;67;20635;-69
2021/12/27 07:46:57;;;;;;;35.17;20.20;;;0.20;99.90;;;;;;2139108;66;20232;-70
2021/12/27 07:49:40;;;;;;;37.42;21.35;;;0.20;99.90;;;;;;2154343;66;20322;-71
2021/12/27 07:52:22;;;;;;;36.22;20.48;;;0.30;99.90;;;;;;2146706;66;20275;-71
2021/12/27 07:55:06;;;;;;;34.05;20.70;;;0.20;99.90;;;;;;2132030;67;20163;-70
2021/12/27 07:57:48;;;;;;;31.20;18.88;;;0.20;99.90;;;;;;2131684;67;21059;-71
2021/12/27 08:00:30;;;;;;;37.30;21.65;;;0.20;99.90;;;;;;2125124;67;20384;-69
2021/12/27 08:03:15;;;;;;;37.07;21.23;;;0.20;99.90;;;;;;2118190;67;20201;-70
2021/12/27 08:05:57;;;;;;;29.50;18.08;;;0.20;99.90;;;;;;2124270;67;20173;-70
2021/12/27 08:08:43;;;;;;;33.85;20.17;;;0.20;99.90;;;;;;2120440;67;20231;-70
2021/12/27 08:11:27;;;;;;;32.40;19.02;;;0.20;99.90;;;;;;2142529;66;20202;-70
2021/12/27 08:14:09;;;;;;;37.88;21.80;;;1.20;99.90;;;;;;2125531;67;20313;-71
2021/12/27 08:16:50;;;;;;;35.67;19.77;;;0.20;99.90;;;;;;2124536;67;20708;-70
2021/12/27 08:19:33;;;;;;;31.42;18.73;;;0.30;99.90;;;;;;2116395;67;20233;-69
2021/12/27 08:22:16;;;;;;;32.50;19.75;;;0.20;99.90;;;;;;2132443;67;20483;-70
2021/12/27 08:25:02;;;;;;;33.55;19.50;;;0.20;99.90;;;;;;2121725;67;20285;-70
2021/12/27 08:27:46;;;;;;;32.75;20.67;;;0.30;99.90;;;;;;2117970;67;20200;-71
2021/12/27 08:30:28;;;;;;;34.55;19.83;;;0.30;99.90;;;;;;2112998;67;20546;-69
2021/12/27 08:33:11;;;;;;;30.52;18.98;;;0.30;99.90;;;;;;2118008;67;20359;-69
2021/12/27 08:35:56;;;;;;;32.00;20.42;;;0.40;99.90;;;;;;2110609;67;20674;-69
2021/12/27 08:38:37;;;;;;;34.05;20.00;;;0.30;99.90;;;;;;2103494;68;20175;-71
2021/12/27 08:41:19;;;;;;;34.92;19.15;;;0.40;99.90;;;;;;2101877;67;20469;-71
2021/12/27 08:44:04;;;;;;;30.17;19.13;;;0.40;99.90;;;;;;2101530;68;20218;-73
2021/12/27 08:46:48;;;;;;;32.43;19.83;;;0.40;99.90;;;;;;2098996;68;20175;-69
2021/12/27 08:49:31;;;;;;;;;;;0.40;99.90;;;;;;2104379;67;20383;-69
2021/12/27 08:52:14;;;;;;;32.08;19.48;;;0.50;99.90;;;;;;2109781;67;20073;-70
2021/12/27 08:54:56;;;;;;;43.40;20.23;;;0.50;99.90;;;;;;2110141;67;20165;-73
2021/12/27 08:57:38;;;;;;;36.80;20.02;;;0.50;99.90;;;;;;2131633;67;20637;-73
2021/12/27 09:00:20;;;;;;;36.20;20.13;;;0.50;99.90;;;;;;2131963;67;20248;-75
2021/12/27 09:03:02;;;;;;;39.75;19.60;;;0.60;99.90;;;;;;2139241;66;20339;-75
2021/12/27 09:05:45;;;;;;;33.53;20.77;;;0.60;99.90;;;;;;2129933;67;20921;-74
2021/12/27 09:08:28;;;;;;;32.78;19.65;;;0.60;99.90;;;;;;2136807;66;20591;-72
2021/12/27 09:11:09;;;;;;;32.55;19.90;;;0.60;99.90;;;;;;2134775;66;20198;-70
2021/12/27 09:13:51;;;;;;;39.47;20.73;;;0.70;99.90;;;;;;2132833;67;20472;-69
2021/12/27 09:16:33;;;;;;;36.95;20.25;;;0.70;99.90;;;;;;2131458;67;20213;-69
2021/12/27 09:19:16;;;;;;;32.88;20.95;;;0.80;99.90;;;;;;2117237;67;20280;-70
2021/12/27 09:22:01;;;;;;;28.48;18.55;;;0.80;99.90;;;;;;2106183;67;20352;-68
2021/12/27 09:24:43;;;;;;;27.35;18.83;;;0.80;99.90;;;;;;2109654;67;20805;-70
2021/12/27 09:27:27;;;;;;;33.35;19.35;;;0.90;99.90;;;;;;2124604;67;20266;-70
2021/12/27 09:30:12;;;;;;;36.33;19.55;;;0.90;99.90;;;;;;2125240;67;20172;-70
2021/12/27 09:32:54;;;;;;;32.33;19.38;;;0.90;99.90;;;;;;2128825;67;20184;-70
2021/12/27 09:35:39;;;;;;;33.78;19.63;;;0.90;99.90;;;;;;2127985;67;20665;-71
2021/12/27 09:38:22;;;;;;;36.38;20.05;;;0.90;99.90;;;;;;2120069;67;20411;-71
2021/12/27 09:41:05;;;;;;;;;;;0.90;99.90;;;;;;2132341;67;20832;-70
2021/12/27 09:43:47;;;;;;;36.35;20.42;;;0.90;99.90;;;;;;2132998;66;20134;-70
2021/12/27 09:46:30;;;;;;;32.13;18.35;;;0.90;99.90;;;;;;2137831;66;20295;-70
2021/12/27 09:49:17;;;;;;;35.50;20.30;;;0.90;99.90;;;;;;2148105;66;20597;-70
2021/12/27 09:52:00;;;;;;;39.83;20.08;;;0.90;99.90;;;;;;2139014;66;20707;-69
2021/12/27 09:54:45;;;;;;;;;;;0.90;99.90;;;;;;2140358;66;20589;-69
2021/12/27 09:57:27;;;;;;;35.47;20.38;;;1.00;99.90;;;;;;2154192;66;20085;-70
2021/12/27 10:00:12;;;;;;;36.70;20.95;;;0.90;99.90;;;;;;2152174;66;20257;-71
2021/12/27 10:02:57;;;;;;;37.45;20.52;;;0.90;99.90;;;;;;2141103;66;20253;-70
2021/12/27 10:05:39;;;;;;;36.28;20.42;;;0.90;99.90;;;;;;2165827;65;21096;-69
2021/12/27 10:08:21;;;;;;;40.88;22.20;;;0.90;99.90;;;;;;2153173;66;20340;-71
2021/12/27 10:11:03;;;;;;;39.78;21.80;;;0.90;99.90;;;;;;2138778;66;20358;-71
2021/12/27 10:14:14;;;;;;;38.92;20.33;;;0.90;99.90;;;;;;2152502;66;20764;-73
2021/12/27 10:17:10;;;;;;;37.25;19.50;;;0.90;99.90;;;;;;2139646;66;20411;-73
2021/12/27 10:19:53;;;;;;;40.13;23.10;;;0.80;99.90;;;;;;2152859;66;20438;-72
2021/12/27 10:22:46;;;;;;;41.63;23.23;;;1.20;99.90;;;;;;2150319;66;20186;-71
2021/12/27 10:25:29;;;;;;;49.15;24.75;;;0.90;99.90;;;;;;2157674;66;20182;-72
2021/12/27 10:28:11;;;;;;;45.20;22.77;;;1.20;99.90;;;;;;2147602;66;20232;-70
2021/12/27 10:31:02;;;;;;;41.75;23.55;;;0.90;99.90;;;;;;2146532;66;20332;-72
2021/12/27 10:33:47;;;;;;;42.47;24.17;;;1.00;99.90;;;;;;2123013;67;20406;-71
2021/12/27 10:36:31;;;;;;;44.85;24.35;;;1.00;99.90;;;;;;2117966;67;20343;-73
2021/12/27 10:39:16;;;;;;;45.95;24.88;;;1.00;99.90;;;;;;2134814;67;20186;-74
2021/12/27 10:42:07;;;;;;;44.78;25.02;;;1.00;99.90;;;;;;2118055;67;20820;-73
2021/12/27 10:44:51;;;;;;;49.05;25.67;;;1.00;99.90;;;;;;2116680;67;20681;-70
2021/12/27 10:47:42;;;;;;;60.55;26.65;;;1.10;99.90;;;;;;2119563;67;20273;-70
2021/12/27 10:50:31;;;;;;;54.85;27.02;;;1.10;99.90;;;;;;2119896;67;20394;-72
2021/12/27 10:53:15;;;;;;;55.35;25.25;;;1.20;99.90;;;;;;2129918;67;20415;-72
2021/12/27 10:55:58;;;;;;;49.70;26.73;;;1.20;99.90;;;;;;2126461;67;20196;-73
2021/12/27 10:58:52;;;;;;;51.95;27.27;;;1.20;99.90;;;;;;2133406;66;20374;-73
2021/12/27 11:01:42;;;;;;;52.83;26.67;;;1.30;99.90;;;;;;2137440;66;20852;-74
2021/12/27 11:04:26;;;;;;;58.47;27.85;;;1.30;99.90;;;;;;2142568;66;20663;-72
2021/12/27 11:07:09;;;;;;;53.78;26.55;;;1.40;99.90;;;;;;2134079;66;20275;-71
2021/12/27 11:09:53;;;;;;;;;;;1.40;99.90;;;;;;2131674;66;20330;-69
2021/12/27 11:12:36;;;;;;;62.80;27.33;;;1.50;99.90;;;;;;2128399;67;20144;-70
2021/12/27 11:15:18;;;;;;;59.28;28.63;;;1.50;99.90;;;;;;2127590;67;20768;-71
2021/12/27 11:18:04;;;;;;;71.72;31.08;;;1.70;99.90;;;;;;2127120;67;20231;-71
2021/12/27 11:20:56;;;;;;;56.33;25.42;;;1.60;99.90;;;;;;2130530;67;20259;-70
2021/12/27 11:23:42;;;;;;;63.13;29.27;;;1.60;99.90;;;;;;2114495;67;20838;-69
2021/12/27 11:26:47;;;;;;;63.00;25.60;;;1.70;99.90;;;;;;2116538;67;20205;-70
2021/12/27 11:29:33;;;;;;;61.85;26.67;;;2.00;99.90;;;;;;2130106;67;20400;-69
2021/12/27 11:32:19;;;;;;;68.15;29.60;;;1.80;99.90;;;;;;2140379;66;20255;-71
2021/12/27 11:35:04;;;;;;;65.75;28.25;;;1.80;99.90;;;;;;2139395;66;20236;-72
2021/12/27 11:37:47;;;;;;;66.63;28.25;;;1.90;99.90;;;;;;2150661;66;20358;-69
2021/12/27 11:40:46;;;;;;;68.82;28.55;;;1.90;99.90;;;;;;2141689;66;20239;-70
2021/12/27 11:43:53;;;;;;;68.95;29.98;;;1.90;99.90;;;;;;2126389;67;20344;-70
2021/12/27 11:46:49;;;;;;;67.80;30.77;;;1.90;99.90;;;;;;2128739;66;20713;-73
2021/12/27 11:50:00;;;;;;;80.80;30.25;;;2.10;99.90;;;;;;2125848;67;20267;-72
2021/12/27 11:52:49;;;;;;;65.70;28.42;;;1.90;99.90;;;;;;2137809;66;20183;-73
2021/12/27 11:55:40;;;;;;;82.07;31.75;;;1.90;99.90;;;;;;2125586;67;20212;-72
2021/12/27 11:58:39;;;;;;;72.25;31.05;;;2.30;99.90;;;;;;2122590;67;20396;-74
2021/12/27 12:01:20;;;;;;;73.05;28.50;;;1.80;99.90;;;;;;2137647;67;20371;-73
2021/12/27 12:04:03;;;;;;;81.50;31.23;;;1.80;99.90;;;;;;2127893;67;20282;-72
2021/12/27 12:06:44;;;;;;;89.13;31.27;;;1.80;99.90;;;;;;2125901;67;20222;-74
2021/12/27 12:09:28;;;;;;;78.32;31.60;;;1.80;99.90;;;;;;2131993;67;20191;-74
2021/12/27 12:12:13;;;;;;;;;;;1.80;99.90;;;;;;2134252;67;20365;-74
2021/12/27 12:14:56;;;;;;;89.15;33.17;;;1.80;99.90;;;;;;2124334;67;20432;-74
2021/12/27 12:17:50;;;;;;;84.72;32.15;;;1.80;99.90;;;;;;2115690;67;20376;-71
2021/12/27 12:20:40;;;;;;;93.93;36.65;;;1.80;99.90;;;;;;2106770;67;20854;-70
2021/12/27 12:23:24;;;;;;;79.80;32.92;;;1.90;99.90;;;;;;2106898;67;20227;-71
2021/12/27 12:26:26;;;;;;;80.68;34.25;;;1.80;99.90;;;;;;2127017;66;20847;-70
2021/12/27 12:29:09;;;;;;;86.80;33.65;;;1.90;99.90;;;;;;2133354;66;20723;-73
2021/12/27 12:31:58;;;;;;;72.63;31.00;;;2.00;99.90;;;;;;2124496;67;20431;-74
2021/12/27 12:35:02;;;;;;;88.72;35.47;;;2.00;99.90;;;;;;2122982;67;20284;-74
2021/12/27 12:37:49;;;;;;;76.50;31.52;;;2.10;99.90;;;;;;2112971;67;20289;-73
2021/12/27 12:40:33;;;;;;;;;;;2.10;99.90;;;;;;2127218;67;20327;-72
2021/12/27 12:43:36;;;;;;;78.45;32.72;;;2.10;99.90;;;;;;2128727;67;20064;-72
2021/12/27 12:46:21;;;;;;;90.50;36.67;;;2.10;99.90;;;;;;2121726;67;20416;-74
2021/12/27 12:49:10;;;;;;;107.78;39.33;;;2.10;99.90;;;;;;2119716;67;20908;-71
2021/12/27 12:52:01;;;;;;;95.30;34.85;;;2.00;99.90;;;;;;2122683;67;20757;-74
2021/12/27 12:54:45;;;;;;;110.97;36.00;;;2.00;99.90;;;;;;2116343;67;20278;-73
2021/12/27 12:57:26;;;;;;;83.60;33.90;;;2.10;99.90;;;;;;2127030;67;20683;-71
2021/12/27 13:00:11;;;;;;;105.32;37.00;;;2.10;99.90;;;;;;2120340;67;20397;-75
2021/12/27 13:02:54;;;;;;;89.13;33.78;;;2.10;99.90;;;;;;2118573;67;20262;-72
2021/12/27 13:05:38;;;;;;;84.82;36.72;;;2.10;99.90;;;;;;2123957;67;20255;-72
2021/12/27 13:08:23;;;;;;;99.03;35.55;;;2.10;99.90;;;;;;2135331;66;20220;-72
2021/12/27 13:11:05;;;;;;;88.32;33.63;;;2.20;99.90;;;;;;2136801;66;20242;-72
2021/12/27 13:14:01;;;;;;;83.00;34.33;;;2.20;99.90;;;;;;2123809;67;20208;-71
2021/12/27 13:16:46;;;;;;;77.57;32.20;;;2.30;99.90;;;;;;2108566;67;20339;-72
2021/12/27 13:19:32;;;;;;;81.10;31.60;;;2.20;99.90;;;;;;2109392;67;20193;-71
2021/12/27 13:22:39;;;;;;;82.95;31.83;;;2.20;99.90;;;;;;2102685;67;21317;-72
2021/12/27 13:25:49;;;;;;;86.30;32.70;;;2.20;99.90;;;;;;2098226;67;20680;-77
2021/12/27 13:28:42;;;;;;;82.38;32.13;;;2.30;99.90;;;;;;2098700;67;20257;-72
2021/12/27 13:31:25;;;;;;;81.65;34.08;;;2.20;99.90;;;;;;2101237;67;20359;-73
2021/12/27 13:34:07;;;;;;;78.40;32.33;;;2.20;99.90;;;;;;2105569;67;20181;-71
2021/12/27 13:36:50;;;;;;;88.28;33.83;;;2.30;99.90;;;;;;2112794;67;20211;-75
2021/12/27 13:39:32;;;;;;;79.82;32.08;;;2.30;99.90;;;;;;2114893;67;20234;-73
2021/12/27 13:42:15;;;;;;;86.07;34.67;;;2.20;99.90;;;;;;2098844;68;20174;-73
2021/12/27 13:45:17;;;;;;;92.25;33.05;;;2.30;99.90;;;;;;2117275;67;20943;-74
2021/12/27 13:48:00;;;;;;;81.68;34.20;;;2.30;99.90;;;;;;2127951;67;20188;-72
2021/12/27 13:50:45;;;;;;;91.38;33.22;;;2.30;99.90;;;;;;2126107;67;20216;-71
2021/12/27 13:53:28;;;;;;;120.03;37.28;;;2.30;99.90;;;;;;2140156;66;20244;-72
2021/12/27 13:56:15;;;;;;;80.15;32.83;;;2.40;99.90;;;;;;2141098;66;20190;-73
2021/12/27 13:59:12;;;;;;;91.32;33.75;;;2.40;99.90;;;;;;2131692;67;20243;-71
2021/12/27 14:01:57;;;;;;;107.85;35.80;;;2.40;99.90;;;;;;2120692;67;20362;-74
2021/12/27 14:04:38;;;;;;;105.40;36.60;;;2.40;99.90;;;;;;2109268;67;20362;-71
2021/12/27 14:07:23;;;;;;;100.88;34.92;;;2.40;99.90;;;;;;2104620;67;20235;-75
2021/12/27 14:10:06;;;;;;;115.60;37.78;;;2.50;99.90;;;;;;2112039;67;20323;-75